createdAt,value
2023-01-02T00:01:49.089Z,94.25
2023-01-02T00:04:17.032Z,94.38
2023-01-02T00:06:44.963Z,94.88
2023-01-02T00:09:13.014Z,95.79
2023-01-02T00:11:40.972Z,95.19
2023-01-02T00:14:08.929Z,94.78
2023-01-02T00:16:36.840Z,94.48
2023-01-02T00:19:05.018Z,94.34
2023-01-02T00:21:33.002Z,94.31
2023-01-02T00:24:02.278Z,95.10
2023-01-02T00:26:30.585Z,94.97
2023-01-02T00:28:58.522Z,94.41
2023-01-02T00:31:54.014Z,94.47
2023-01-02T00:34:21.942Z,94.79
2023-01-02T00:36:49.951Z,93.95
2023-01-02T00:39:23.382Z,93.98
2023-01-02T00:41:51.380Z,94.03
2023-01-02T00:44:19.384Z,94.20
2023-01-02T00:46:47.469Z,94.35
2023-01-02T00:53:59.005Z,94.78
2023-01-02T00:56:26.945Z,94.92
2023-01-02T00:58:55.019Z,94.84
2023-01-02T01:02:18.383Z,95.20
2023-01-02T01:04:46.463Z,95.38
2023-01-02T01:07:14.740Z,95.58
2023-01-02T01:09:42.791Z,95.37
2023-01-02T01:12:10.750Z,95.01
2023-01-02T01:14:38.688Z,94.47
2023-01-02T01:17:06.827Z,94.50
2023-01-02T01:19:36.193Z,94.76
2023-01-02T01:22:04.537Z,94.92
2023-01-02T01:24:32.875Z,94.64
2023-01-02T01:27:32.245Z,94.97
2023-01-02T01:30:00.372Z,96.17
2023-01-02T01:32:31.866Z,96.55
2023-01-02T01:35:00.120Z,96.65
2023-01-02T01:37:28.247Z,96.17
2023-01-02T01:39:56.952Z,95.59
2023-01-02T01:42:25.328Z,95.75
2023-01-02T01:44:55.181Z,95.40
2023-01-02T01:47:23.232Z,96.32
2023-01-02T01:50:04.612Z,96.41
2023-01-02T01:52:36.675Z,95.96
2023-01-02T01:55:36.532Z,95.91
2023-01-02T01:58:18.507Z,95.94
2023-01-02T02:00:47.254Z,96.47
2023-01-02T02:03:20.491Z,97.33
2023-01-02T02:05:49.091Z,97.66
2023-01-02T02:08:25.268Z,97.63
2023-01-02T02:10:55.189Z,98.27
2023-01-02T02:13:23.406Z,97.38
2023-01-02T02:16:25.444Z,96.83
2023-01-02T02:19:37.387Z,96.29
2023-01-02T02:22:30.370Z,96.48
2023-01-02T02:25:17.089Z,96.68
2023-01-02T02:28:09.366Z,96.48
2023-01-02T02:30:44.195Z,96.93
2023-01-02T02:33:26.917Z,96.75
2023-01-02T02:36:18.287Z,97.09
2023-01-02T02:39:17.089Z,97.64
2023-01-02T02:42:12.001Z,97.45
2023-01-02T02:44:54.123Z,98.52
2023-01-02T02:47:47.010Z,98.53
2023-01-02T02:50:26.824Z,98.62
2023-01-02T02:53:06.220Z,98.45
2023-01-02T02:55:45.617Z,98.24
2023-01-02T02:58:15.795Z,98.02
2023-01-02T03:00:43.711Z,98.46
2023-01-02T03:03:24.468Z,98.21
2023-01-02T03:06:17.350Z,98.03
2023-01-02T03:09:09.299Z,97.83
2023-01-02T03:11:55.333Z,98.71
2023-01-02T03:15:06.246Z,98.23
2023-01-02T03:17:52.991Z,97.81
2023-01-02T03:20:25.370Z,98.42
2023-01-02T03:23:00.252Z,98.68
2023-01-02T03:25:29.734Z,98.61
2023-01-02T03:28:03.987Z,98.46
2023-01-02T03:30:35.225Z,98.10
2023-01-02T03:33:16.701Z,97.67
2023-01-02T03:35:49.824Z,97.66
2023-01-02T03:38:43.705Z,97.55
2023-01-02T03:41:19.138Z,97.76
2023-01-02T03:43:56.545Z,97.53
2023-01-02T03:46:51.267Z,97.89
2023-01-02T03:49:26.061Z,97.50
2023-01-02T03:51:54.316Z,96.78
2023-01-02T03:54:22.560Z,96.94
2023-01-02T03:57:08.779Z,97.40
2023-01-02T03:59:41.313Z,97.47
2023-01-02T04:02:25.818Z,97.21
2023-01-02T04:04:55.044Z,97.29
2023-01-02T04:07:47.574Z,97.12
2023-01-02T04:10:16.487Z,97.31
2023-01-02T04:12:50.856Z,97.04
2023-01-02T04:15:22.274Z,97.18
2023-01-02T04:18:13.166Z,97.36
2023-01-02T04:20:46.431Z,98.10
2023-01-02T04:23:20.321Z,98.09
2023-01-02T04:25:52.336Z,98.32
2023-01-02T04:28:28.249Z,98.40
2023-01-02T04:31:06.033Z,98.36
2023-01-02T04:33:40.280Z,98.07
2023-01-02T04:36:13.777Z,98.06
2023-01-02T04:38:42.935Z,97.98
2023-01-02T04:41:16.791Z,97.59
2023-01-02T04:43:44.771Z,97.37
2023-01-02T04:46:12.700Z,97.59
2023-01-02T04:48:41.368Z,97.83
2023-01-02T04:51:09.389Z,98.06
2023-01-02T04:53:37.292Z,98.01
2023-01-02T04:56:05.649Z,97.65
2023-01-02T04:58:33.639Z,97.46
2023-01-02T05:01:01.608Z,97.92
2023-01-02T05:03:29.555Z,97.10
2023-01-02T05:06:01.828Z,97.00
2023-01-02T05:08:29.992Z,97.75
2023-01-02T05:11:05.654Z,97.96
2023-01-02T05:13:33.685Z,97.94
2023-01-02T05:16:01.880Z,97.99
2023-01-02T05:18:31.468Z,98.14
2023-01-02T05:21:05.001Z,98.38
2023-01-02T05:23:51.193Z,98.56
2023-01-02T05:26:19.257Z,97.97
2023-01-02T05:28:47.317Z,97.40
2023-01-02T05:31:15.488Z,97.16
2023-01-02T05:33:43.448Z,97.25
2023-01-02T05:36:11.445Z,97.15
2023-01-02T05:38:39.960Z,97.16
2023-01-02T05:41:08.264Z,97.40
2023-01-02T05:43:37.916Z,97.47
2023-01-02T05:46:14.601Z,97.64
2023-01-02T05:48:43.066Z,97.79
2023-01-02T05:51:13.957Z,98.27
2023-01-02T05:53:42.012Z,98.59
2023-01-02T05:56:12.733Z,98.43
2023-01-02T05:58:43.384Z,98.36
2023-01-02T06:01:29.529Z,98.66
2023-01-02T06:04:00.425Z,99.19
2023-01-02T06:06:38.026Z,99.39
2023-01-02T06:09:13.154Z,99.18
2023-01-02T06:11:41.381Z,99.04
2023-01-02T06:14:10.817Z,99.13
2023-01-02T06:16:39.958Z,98.77
2023-01-02T06:19:08.267Z,99.11
2023-01-02T06:21:36.352Z,99.09
2023-01-02T06:24:04.352Z,98.59
2023-01-02T06:26:37.346Z,98.61
2023-01-02T06:29:05.360Z,98.75
2023-01-02T06:31:33.844Z,99.39
2023-01-02T06:34:04.173Z,99.28
2023-01-02T06:36:34.695Z,99.55
2023-01-02T06:39:03.051Z,99.78
2023-01-02T06:41:31.377Z,99.48
2023-01-02T06:43:59.459Z,99.41
2023-01-02T06:47:19.131Z,99.64
2023-01-02T06:49:47.041Z,99.60
2023-01-02T06:52:15.011Z,98.97
2023-01-02T06:54:43.095Z,98.87
2023-01-02T06:57:11.340Z,99.78
2023-01-02T06:59:39.332Z,99.89
2023-01-02T07:02:07.296Z,99.53
2023-01-02T07:04:35.264Z,99.92
2023-01-02T07:07:03.316Z,99.77
2023-01-02T07:09:31.807Z,99.74
2023-01-02T07:11:59.757Z,99.81
2023-01-02T07:14:28.885Z,99.50
2023-01-02T07:16:56.893Z,99.33
2023-01-02T07:19:24.918Z,99.26
2023-01-02T07:21:52.889Z,98.98
2023-01-02T07:24:20.894Z,99.23
2023-01-02T07:26:48.999Z,99.16
2023-01-02T07:29:16.912Z,99.29
2023-01-02T07:31:44.923Z,99.09
2023-01-02T07:34:12.911Z,99.51
2023-01-02T07:36:40.892Z,99.82
2023-01-02T07:39:08.940Z,99.94
2023-01-02T07:41:36.960Z,99.91
2023-01-02T07:44:13.941Z,99.79
2023-01-02T07:46:41.937Z,99.45
2023-01-02T07:49:12.956Z,99.48
2023-01-02T07:51:40.898Z,99.27
2023-01-02T07:54:08.862Z,98.89
2023-01-02T07:56:36.865Z,99.18
2023-01-02T07:59:04.792Z,99.19
2023-01-02T08:01:33.331Z,99.23
2023-01-02T08:04:01.807Z,99.41
2023-01-02T08:06:30.340Z,99.48
2023-01-02T08:08:59.049Z,99.67
2023-01-02T08:11:30.779Z,99.68
2023-01-02T08:13:59.197Z,99.71
2023-01-02T08:16:27.284Z,99.72
2023-01-02T08:18:55.854Z,99.99
2023-01-02T08:21:25.735Z,100.00
2023-01-02T08:23:53.881Z,99.76
2023-01-02T08:26:23.441Z,99.23
2023-01-02T08:28:51.510Z,99.16
2023-01-02T08:31:21.639Z,99.35
2023-01-02T08:33:50.607Z,99.44
2023-01-02T08:36:19.931Z,99.57
2023-01-02T08:38:47.925Z,99.62
2023-01-02T08:41:15.858Z,99.49
2023-01-02T08:43:43.795Z,99.70
2023-01-02T08:46:11.928Z,99.56
2023-01-02T08:48:40.033Z,99.65
2023-01-02T08:51:08.059Z,99.35
2023-01-02T08:53:35.999Z,99.49
2023-01-02T08:56:24.062Z,99.83
2023-01-02T08:58:53.018Z,99.98
2023-01-02T09:01:22.266Z,99.95
2023-01-02T09:03:51.619Z,99.45
2023-01-02T09:06:22.283Z,99.78
2023-01-02T09:08:55.572Z,100.00
2023-01-02T09:11:27.084Z,100.00
2023-01-02T09:13:56.415Z,100.00
2023-01-02T09:16:24.527Z,100.00
2023-01-02T09:18:53.266Z,99.97
2023-01-02T09:21:21.213Z,100.00
2023-01-02T09:23:49.209Z,99.98
2023-01-02T09:26:17.298Z,100.00
2023-01-02T09:28:45.316Z,100.00
2023-01-02T09:31:16.270Z,99.95
2023-01-02T09:33:45.718Z,99.96
2023-01-02T09:36:17.137Z,100.00
2023-01-02T09:39:00.537Z,99.96
2023-01-02T09:41:41.192Z,99.87
2023-01-02T09:44:30.997Z,99.64
2023-01-02T09:47:12.804Z,99.53
2023-01-02T09:50:07.759Z,99.83
2023-01-02T09:52:43.371Z,99.48
2023-01-02T09:55:16.794Z,99.18
2023-01-02T09:58:07.349Z,98.85
2023-01-02T10:00:38.903Z,98.77
2023-01-02T10:03:23.812Z,98.64
2023-01-02T10:06:13.274Z,98.38
2023-01-02T10:09:12.879Z,98.10
2023-01-02T10:11:43.883Z,98.09
2023-01-02T10:14:36.066Z,97.28
2023-01-02T10:17:07.760Z,96.86
2023-01-02T10:19:48.799Z,96.97
2023-01-02T10:22:26.565Z,95.46
2023-01-02T10:25:29.762Z,95.53
2023-01-02T10:28:07.228Z,94.63
2023-01-02T10:30:42.793Z,94.97
2023-01-02T10:33:19.559Z,93.70
2023-01-02T10:35:53.425Z,92.42
2023-01-02T10:38:21.586Z,93.23
2023-01-02T10:40:51.240Z,93.64
2023-01-02T10:43:19.716Z,93.13
2023-01-02T10:45:47.942Z,92.67
2023-01-02T10:48:15.996Z,92.95
2023-01-02T10:50:51.355Z,91.94
2023-01-02T10:53:37.501Z,92.21
2023-01-02T10:56:25.992Z,90.86
2023-01-02T10:58:53.990Z,91.56
2023-01-02T11:01:22.853Z,90.71
2023-01-02T11:03:59.906Z,91.21
2023-01-02T11:06:38.823Z,90.92
2023-01-02T11:09:23.169Z,91.01
2023-01-02T11:11:56.773Z,90.27
2023-01-02T11:14:32.417Z,90.04
2023-01-02T11:17:11.959Z,90.26
2023-01-02T11:19:50.089Z,89.76
2023-01-02T11:22:21.764Z,89.59
2023-01-02T11:25:02.402Z,89.34
2023-01-02T11:27:33.603Z,87.99
2023-01-02T11:30:02.894Z,87.75
2023-01-02T11:32:38.743Z,88.25
2023-01-02T11:35:34.039Z,89.29
2023-01-02T11:38:02.593Z,88.17
2023-01-02T11:40:32.243Z,86.75
2023-01-02T11:43:26.559Z,85.67
2023-01-02T11:45:55.017Z,85.21
2023-01-02T11:48:24.496Z,83.76
2023-01-02T11:50:53.051Z,82.02
2023-01-02T11:53:29.317Z,80.44
2023-01-02T11:56:04.588Z,76.46
2023-01-02T11:58:51.474Z,77.58
2023-01-02T12:01:30.140Z,76.80
2023-01-02T12:03:59.720Z,75.98
2023-01-02T12:06:55.433Z,75.77
2023-01-02T12:09:34.260Z,73.20
2023-01-02T12:12:08.081Z,70.99
2023-01-02T12:14:57.628Z,67.75
2023-01-02T12:17:39.349Z,64.41
2023-01-02T12:20:41.511Z,63.20
2023-01-02T12:23:31.666Z,61.13
2023-01-02T12:26:11.916Z,55.42
2023-01-02T12:29:04.385Z,52.47
2023-01-02T12:32:06.575Z,55.85
2023-01-02T12:34:57.811Z,53.52
2023-01-02T12:37:40.525Z,51.62
2023-01-02T12:40:44.546Z,50.45
2023-01-02T12:43:29.430Z,49.54
2023-01-02T12:46:11.615Z,51.14
2023-01-02T12:48:46.199Z,49.20
2023-01-02T12:51:36.341Z,49.10
2023-01-02T12:54:19.966Z,47.16
2023-01-02T12:57:22.674Z,50.05
2023-01-02T13:00:03.986Z,48.90
2023-01-02T13:02:40.961Z,48.30
2023-01-02T13:05:13.784Z,49.40
2023-01-02T13:07:47.848Z,49.65
2023-01-02T13:10:23.876Z,49.11
2023-01-02T13:12:54.235Z,49.90
2023-01-02T13:15:33.974Z,50.44
2023-01-02T13:18:11.544Z,51.01
2023-01-02T13:20:53.099Z,50.80
2023-01-02T13:23:30.103Z,50.82
2023-01-02T13:26:11.204Z,50.79
2023-01-02T13:28:44.202Z,51.61
2023-01-02T13:34:09.434Z,53.52
2023-01-02T13:36:41.315Z,53.19
2023-01-02T13:39:25.059Z,52.92
2023-01-02T13:42:18.610Z,52.81
2023-01-02T13:44:50.790Z,52.81
2023-01-02T13:47:33.585Z,51.81
2023-01-02T13:50:27.426Z,51.46
2023-01-02T13:53:06.129Z,51.55
2023-01-02T13:55:41.239Z,51.65
2023-01-02T13:58:12.474Z,51.57
2023-01-02T14:00:56.818Z,51.66
2023-01-02T14:03:24.754Z,51.26
2023-01-02T14:06:01.804Z,51.45
2023-01-02T14:08:38.245Z,51.07
2023-01-02T14:11:07.420Z,50.92
2023-01-02T14:13:50.394Z,50.76
2023-01-02T14:16:36.407Z,50.67
2023-01-02T14:19:13.382Z,50.98
2023-01-02T14:22:01.232Z,50.56
2023-01-02T14:24:38.732Z,50.67
2023-01-02T14:27:16.070Z,50.74
2023-01-02T14:30:13.154Z,50.88
2023-01-02T14:32:44.374Z,51.13
2023-01-02T14:35:15.282Z,50.79
2023-01-02T14:37:49.399Z,50.67
2023-01-02T14:40:23.372Z,49.96
2023-01-02T14:43:16.628Z,50.53
2023-01-02T14:45:48.939Z,51.10
2023-01-02T14:48:24.074Z,51.89
2023-01-02T14:51:01.442Z,53.45
2023-01-02T14:53:57.825Z,53.54
2023-01-02T14:56:34.026Z,54.76
2023-01-02T14:59:03.575Z,54.54
2023-01-02T15:01:43.554Z,54.61
2023-01-02T15:04:18.566Z,55.02
2023-01-02T15:07:09.613Z,54.73
2023-01-02T15:09:43.415Z,54.98
2023-01-02T15:12:45.373Z,55.78
2023-01-02T15:15:19.367Z,56.23
2023-01-02T15:17:49.241Z,56.67
2023-01-02T15:20:27.888Z,58.03
2023-01-02T15:22:56.648Z,58.41
2023-01-02T15:25:40.336Z,58.91
2023-01-02T15:28:23.167Z,61.34
2023-01-02T15:31:19.991Z,61.40
2023-01-02T15:33:56.791Z,61.24
2023-01-02T15:36:40.227Z,61.08
2023-01-02T15:39:16.717Z,62.33
2023-01-02T15:41:52.718Z,64.10
2023-01-02T15:44:45.964Z,64.02
2023-01-02T15:47:14.705Z,65.53
2023-01-02T15:49:44.952Z,67.55
2023-01-02T15:52:31.344Z,65.99
2023-01-02T15:55:00.535Z,65.75
2023-01-02T15:57:34.099Z,67.28
2023-01-02T16:00:02.359Z,67.20
2023-01-02T16:02:45.000Z,67.35
2023-01-02T16:05:17.064Z,66.83
2023-01-02T16:07:51.275Z,69.35
2023-01-02T16:10:25.969Z,70.93
2023-01-02T16:13:03.599Z,69.19
2023-01-02T16:15:35.677Z,69.03
2023-01-02T16:18:04.338Z,69.25
2023-01-02T16:20:32.290Z,69.07
2023-01-02T16:23:05.623Z,69.28
2023-01-02T16:25:44.728Z,69.21
2023-01-02T16:28:35.964Z,69.36
2023-01-02T16:31:18.108Z,69.34
2023-01-02T16:33:51.557Z,69.41
2023-01-02T16:36:25.631Z,69.72
2023-01-02T16:38:56.148Z,69.73
2023-01-02T16:41:42.044Z,69.93
2023-01-02T16:44:15.688Z,70.14
2023-01-02T16:46:46.312Z,70.15
2023-01-02T16:49:17.129Z,71.97
2023-01-02T16:51:47.918Z,74.05
2023-01-02T16:54:17.690Z,74.61
2023-01-02T16:56:47.637Z,73.63
2023-01-02T16:59:15.594Z,72.95
2023-01-02T17:01:43.620Z,72.85
2023-01-02T17:04:13.332Z,72.83
2023-01-02T17:06:42.442Z,75.25
2023-01-02T17:09:10.584Z,76.91
2023-01-02T17:12:12.341Z,76.39
2023-01-02T17:14:40.522Z,75.43
2023-01-02T17:17:08.659Z,76.01
2023-01-02T17:19:36.615Z,75.86
2023-01-02T17:22:56.037Z,75.62
2023-01-02T17:25:24.064Z,75.14
2023-01-02T17:27:52.071Z,75.66
2023-01-02T17:30:21.101Z,79.64
2023-01-02T17:32:49.278Z,79.01
2023-01-02T17:35:17.645Z,79.18
2023-01-02T17:37:48.371Z,79.82
2023-01-02T17:40:16.989Z,78.87
2023-01-02T17:42:45.367Z,80.61
2023-01-02T17:45:13.682Z,80.93
2023-01-02T17:48:01.294Z,80.77
2023-01-02T17:50:29.928Z,81.95
2023-01-02T17:52:58.178Z,81.14
2023-01-02T17:55:26.165Z,80.68
2023-01-02T17:57:54.204Z,81.20
2023-01-02T18:00:23.768Z,81.30
2023-01-02T18:02:53.112Z,81.49
2023-01-02T18:05:24.422Z,80.87
2023-01-02T18:07:53.697Z,80.50
2023-01-02T18:10:23.710Z,80.46
2023-01-02T18:12:54.511Z,81.16
2023-01-02T18:15:23.160Z,80.35
2023-01-02T18:17:54.057Z,80.68
2023-01-02T18:20:23.426Z,80.54
2023-01-02T18:22:51.596Z,80.55
2023-01-02T18:25:25.342Z,84.66
2023-01-02T18:27:58.147Z,86.18
2023-01-02T18:30:27.190Z,89.10
2023-01-02T18:33:12.444Z,90.17
2023-01-02T18:35:58.115Z,91.62
2023-01-02T18:38:31.767Z,93.25
2023-01-02T18:40:59.894Z,94.07
2023-01-02T18:43:32.517Z,93.92
2023-01-02T18:46:11.397Z,93.86
2023-01-02T18:48:39.818Z,94.20
2023-01-02T18:51:18.820Z,93.84
2023-01-02T18:53:52.614Z,94.15
2023-01-02T18:56:27.467Z,93.72
2023-01-02T18:59:14.459Z,92.23
2023-01-02T19:01:50.573Z,91.83
2023-01-02T19:04:27.749Z,92.20
2023-01-02T19:07:00.000Z,92.92
2023-01-02T19:09:34.871Z,94.12
2023-01-02T19:12:43.517Z,94.34
2023-01-02T19:16:00.200Z,93.58
2023-01-02T19:18:33.453Z,94.60
2023-01-02T19:21:23.113Z,94.84
2023-01-02T19:24:18.998Z,93.72
2023-01-02T19:26:49.559Z,93.55
2023-01-02T19:29:22.240Z,92.92
2023-01-02T19:36:45.149Z,91.68
2023-01-02T19:39:39.005Z,92.14
2023-01-02T19:42:21.953Z,91.52
2023-01-02T19:44:53.142Z,92.21
2023-01-02T19:47:23.364Z,92.08
2023-01-02T19:49:52.518Z,93.18
2023-01-02T19:52:22.203Z,93.80
2023-01-02T19:54:52.716Z,94.50
2023-01-02T19:57:22.248Z,96.08
2023-01-02T19:59:52.053Z,96.81
2023-01-02T20:02:22.459Z,95.54
2023-01-02T20:04:53.349Z,95.62
2023-01-02T20:07:22.860Z,95.88
2023-01-02T20:09:52.370Z,96.54
2023-01-02T20:12:30.448Z,98.50
2023-01-02T20:15:26.793Z,97.89
2023-01-02T20:17:55.377Z,97.88
2023-01-02T20:20:26.201Z,98.88
2023-01-02T20:22:55.063Z,99.12
2023-01-02T20:25:26.336Z,99.13
2023-01-02T20:27:56.295Z,99.36
2023-01-02T20:30:52.211Z,99.84
2023-01-02T20:33:20.198Z,99.96
2023-01-02T20:35:48.127Z,99.87
2023-01-02T20:38:16.245Z,99.16
2023-01-02T20:40:44.162Z,99.73
2023-01-02T20:43:12.125Z,100.00
2023-01-02T20:45:40.248Z,99.47
2023-01-02T20:48:08.245Z,98.78
2023-01-02T20:50:36.211Z,98.96
2023-01-02T20:53:04.345Z,98.75
2023-01-02T20:55:32.894Z,98.13
2023-01-02T20:58:00.857Z,98.15
2023-01-02T21:00:28.886Z,97.38
2023-01-02T21:02:57.105Z,97.09
2023-01-02T21:05:25.274Z,96.73
2023-01-02T21:07:53.231Z,97.06
2023-01-02T21:10:22.230Z,96.91
2023-01-02T21:13:08.439Z,96.49
2023-01-02T21:15:54.965Z,96.42
2023-01-02T21:18:25.880Z,96.12
2023-01-02T21:20:56.516Z,95.90
2023-01-02T21:23:26.365Z,95.33
2023-01-02T21:25:54.906Z,95.66
2023-01-02T21:28:24.057Z,95.39
2023-01-02T21:30:52.951Z,95.31
2023-01-02T21:33:24.128Z,95.33
2023-01-02T21:35:54.207Z,95.28
2023-01-02T21:38:23.833Z,95.25
2023-01-02T21:40:52.596Z,95.32
2023-01-02T21:43:23.651Z,95.35
2023-01-02T21:45:51.639Z,95.62
2023-01-02T21:48:19.620Z,95.86
2023-01-02T21:50:47.543Z,95.57
2023-01-02T21:53:16.889Z,95.39
2023-01-02T21:55:44.990Z,95.27
2023-01-02T21:58:14.129Z,95.43
2023-01-02T22:00:43.419Z,96.99
2023-01-02T22:03:12.013Z,96.86
2023-01-02T22:05:40.309Z,95.69
2023-01-02T22:08:08.652Z,96.64
2023-01-02T22:10:36.644Z,96.58
2023-01-02T22:13:05.661Z,97.06
2023-01-02T22:15:33.685Z,98.70
2023-01-02T22:18:01.640Z,98.48
2023-01-02T22:20:29.559Z,98.57
2023-01-02T22:22:57.648Z,98.91
2023-01-02T22:25:25.654Z,99.68
2023-01-02T22:27:53.630Z,99.78
2023-01-02T22:30:29.409Z,99.50
2023-01-02T22:32:59.235Z,99.84
2023-01-02T22:35:27.656Z,100.00
2023-01-02T22:37:57.395Z,100.00
2023-01-02T22:40:25.419Z,100.00
2023-01-02T22:43:05.352Z,100.00
2023-01-02T22:45:39.762Z,100.00
2023-01-02T22:48:16.189Z,100.00
2023-01-02T22:50:45.742Z,100.00
2023-01-02T22:53:30.343Z,100.00
2023-01-02T22:55:59.848Z,100.00
2023-01-02T22:58:27.889Z,100.00
2023-01-02T23:01:00.328Z,100.00
2023-01-02T23:03:38.017Z,100.00
2023-01-02T23:06:08.073Z,100.00
2023-01-02T23:08:36.579Z,100.00
2023-01-02T23:11:06.303Z,100.00
2023-01-02T23:13:35.312Z,100.00
2023-01-02T23:16:22.972Z,100.00
2023-01-02T23:19:10.096Z,100.00
2023-01-02T23:21:38.957Z,100.00
2023-01-02T23:24:07.510Z,100.00
2023-01-02T23:26:39.764Z,100.00
2023-01-02T23:29:08.986Z,100.00
2023-01-02T23:31:39.761Z,100.00
2023-01-02T23:34:09.252Z,100.00
2023-01-02T23:36:40.350Z,100.00
2023-01-02T23:39:11.881Z,100.00
2023-01-02T23:41:41.564Z,100.00
2023-01-02T23:44:10.964Z,100.00
2023-01-02T23:46:39.752Z,100.00
2023-01-02T23:49:09.454Z,100.00
2023-01-02T23:51:39.057Z,100.00
2023-01-02T23:54:08.304Z,100.00
2023-01-02T23:56:38.605Z,100.00
2023-01-02T23:59:12.340Z,100.00
